Time;durP1;ratioP1;P1;durP2;ratioP2;P2;SDS_P1;SDS_P2;PMS_P1;PMS_P2;Temp;Humidity;BMP_temperature;BMP_pressure;BME280_temperature;BME280_humidity;BME280_pressure;Samples;Min_cycle;Max_cycle;Signal;HPM_P1;HPM_P2
2023/02/09 00:01:15;;;;;;;26.03;15.70;;;-1.20;99.90;;;;;;5013428;28;20391;-71
2023/02/09 00:03:41;;;;;;;23.30;17.10;;;-1.30;99.90;;;;;;5013578;28;20465;-71
2023/02/09 00:06:10;;;;;;;20.90;15.47;;;-1.30;99.90;;;;;;5013490;28;20502;-71
2023/02/09 00:08:36;;;;;;;24.40;16.67;;;-1.30;99.90;;;;;;5012948;28;20395;-71
2023/02/09 00:11:10;;;;;;;26.07;15.00;;;-1.40;99.90;;;;;;5013500;28;20411;-70
2023/02/09 00:13:36;;;;;;;23.90;16.73;;;-1.40;99.90;;;;;;5013592;28;20188;-71
2023/02/09 00:16:03;;;;;;;23.50;16.10;;;-1.40;99.90;;;;;;5022643;28;20442;-71
2023/02/09 00:18:31;;;;;;;19.53;14.43;;;-1.40;99.90;;;;;;5033305;28;20406;-71
2023/02/09 00:21:02;;;;;;;22.83;16.07;;;-1.50;99.90;;;;;;5033075;28;20413;-71
2023/02/09 00:23:30;;;;;;;23.17;16.23;;;-1.50;99.90;;;;;;5033455;28;20450;-71
2023/02/09 00:26:00;;;;;;;23.97;15.77;;;-1.50;99.90;;;;;;5033647;28;20402;-71
2023/02/09 00:28:26;;;;;;;24.43;16.90;;;-1.50;99.90;;;;;;5033335;28;20409;-71
2023/02/09 00:30:52;;;;;;;28.67;18.00;;;-1.60;99.90;;;;;;5032572;28;20445;-71
2023/02/09 00:33:18;;;;;;;23.13;16.90;;;-1.60;99.90;;;;;;5031780;28;20842;-71
2023/02/09 00:35:44;;;;;;;23.07;16.37;;;-1.50;99.90;;;;;;5031207;28;20564;-72
2023/02/09 00:38:11;;;;;;;23.80;15.47;;;-1.60;99.90;;;;;;5033208;28;20534;-72
2023/02/09 00:40:38;;;;;;;21.80;15.00;;;-1.60;99.90;;;;;;5031484;28;20999;-71
2023/02/09 00:43:04;;;;;;;22.80;16.63;;;-1.50;99.90;;;;;;5032705;28;20441;-71
2023/02/09 00:45:29;;;;;;;27.17;17.43;;;-1.40;99.90;;;;;;5032078;28;20421;-72
2023/02/09 00:47:56;;;;;;;26.53;18.67;;;-1.40;99.90;;;;;;5032484;28;20414;-71
2023/02/09 00:50:22;;;;;;;26.97;17.30;;;-1.50;99.90;;;;;;5032430;28;20172;-72
2023/02/09 00:52:47;;;;;;;24.50;15.37;;;-1.50;99.90;;;;;;5031972;28;20398;-72
2023/02/09 00:55:13;;;;;;;30.20;19.03;;;-1.50;99.90;;;;;;5030997;28;20937;-72
2023/02/09 00:57:39;;;;;;;27.30;18.07;;;-1.40;99.90;;;;;;5032581;28;20537;-71
2023/02/09 01:00:05;;;;;;;24.00;17.53;;;-1.40;99.90;;;;;;5032215;28;20206;-70
2023/02/09 01:02:31;;;;;;;26.93;18.20;;;-1.40;99.90;;;;;;5032064;28;20548;-71
2023/02/09 01:04:56;;;;;;;23.47;15.70;;;-1.40;99.90;;;;;;5032308;28;20453;-71
2023/02/09 01:07:22;;;;;;;21.23;15.67;;;-1.50;99.90;;;;;;5032252;28;20233;-71
2023/02/09 01:09:47;;;;;;;25.20;16.03;;;-1.60;99.90;;;;;;5032430;28;20190;-71
2023/02/09 01:12:13;;;;;;;24.50;16.47;;;-1.60;99.90;;;;;;5032484;28;20230;-71
2023/02/09 01:14:39;;;;;;;29.30;19.07;;;-1.70;99.90;;;;;;5032049;28;20245;-74
2023/02/09 01:17:05;;;;;;;22.00;16.27;;;-1.60;99.90;;;;;;5030479;28;20209;-72
2023/02/09 01:19:31;;;;;;;24.13;17.17;;;-1.60;99.90;;;;;;5032372;28;20463;-72
2023/02/09 01:21:57;;;;;;;23.97;16.40;;;-1.70;99.90;;;;;;5031559;28;20669;-72
2023/02/09 01:24:22;;;;;;;26.73;16.67;;;-1.70;99.90;;;;;;5031861;28;20449;-71
2023/02/09 01:26:48;;;;;;;20.60;16.90;;;-1.80;99.90;;;;;;5032418;28;20210;-71
2023/02/09 01:29:15;;;;;;;28.93;17.33;;;-1.80;99.90;;;;;;5033121;28;20232;-73
2023/02/09 01:31:42;;;;;;;24.40;17.63;;;-2.00;99.90;;;;;;5033513;28;20167;-71
2023/02/09 01:34:11;;;;;;;28.97;19.40;;;-1.90;99.90;;;;;;5031593;28;20480;-72
2023/02/09 01:36:37;;;;;;;26.03;17.47;;;-1.90;99.90;;;;;;5032042;28;20773;-72
2023/02/09 01:39:03;;;;;;;26.00;16.50;;;-1.90;99.90;;;;;;5032253;28;20409;-72
2023/02/09 01:41:29;;;;;;;27.43;19.87;;;-1.90;99.90;;;;;;5032484;28;20170;-72
2023/02/09 01:44:04;;;;;;;27.70;17.60;;;-1.80;99.90;;;;;;5031933;28;20812;-72
2023/02/09 01:46:33;;;;;;;27.13;17.47;;;-1.70;99.90;;;;;;5032226;28;20442;-71
2023/02/09 01:49:09;;;;;;;23.60;15.97;;;-1.70;99.90;;;;;;5031683;28;20406;-71
2023/02/09 01:51:41;;;;;;;22.53;16.80;;;-1.70;99.90;;;;;;5031873;28;20406;-72
2023/02/09 01:54:13;;;;;;;25.07;17.17;;;-1.70;99.90;;;;;;5031668;28;20457;-72
2023/02/09 01:56:41;;;;;;;23.07;16.03;;;-1.90;99.90;;;;;;5032055;28;20395;-71
2023/02/09 01:59:08;;;;;;;28.30;18.60;;;-1.90;99.90;;;;;;5029406;28;20441;-70
2023/02/09 02:01:34;;;;;;;24.07;17.60;;;-1.90;99.90;;;;;;5033084;28;20429;-71
2023/02/09 02:03:59;;;;;;;24.83;18.10;;;-1.80;99.90;;;;;;5034517;28;20457;-71
2023/02/09 02:06:25;;;;;;;27.77;19.13;;;-1.80;99.90;;;;;;5035489;28;20410;-71
2023/02/09 02:09:02;;;;;;;25.50;16.97;;;-1.70;99.90;;;;;;5035442;28;20263;-71
2023/02/09 02:11:28;;;;;;;25.77;18.27;;;-1.70;99.90;;;;;;5035607;28;20202;-71
2023/02/09 02:13:55;;;;;;;27.70;17.57;;;-1.80;99.90;;;;;;5034053;28;20438;-71
2023/02/09 02:16:44;;;;;;;25.10;16.80;;;-2.00;99.90;;;;;;5034043;28;20830;-71
2023/02/09 02:19:25;;;;;;;27.03;17.83;;;-2.10;99.90;;;;;;5035609;28;20390;-71
2023/02/09 02:22:15;;;;;;;24.37;17.03;;;-2.10;99.90;;;;;;5035715;28;20459;-71
2023/02/09 02:24:44;;;;;;;24.63;15.97;;;-2.10;99.90;;;;;;5035144;28;20441;-71
2023/02/09 02:27:19;;;;;;;27.90;18.07;;;-2.10;99.90;;;;;;5035114;28;20417;-71
2023/02/09 02:29:54;;;;;;;24.80;17.27;;;-2.00;99.90;;;;;;5033253;28;20414;-71
2023/02/09 02:32:56;;;;;;;25.60;18.50;;;-1.90;99.90;;;;;;5034746;28;20476;-72
2023/02/09 02:35:40;;;;;;;24.43;16.17;;;-1.90;99.90;;;;;;5035071;28;20394;-71
2023/02/09 02:38:20;;;;;;;28.20;18.03;;;-1.90;99.90;;;;;;5035285;28;20453;-71
2023/02/09 02:41:08;;;;;;;26.43;17.13;;;-2.00;99.90;;;;;;5033501;28;20409;-71
2023/02/09 02:44:07;;;;;;;24.87;17.67;;;-2.00;99.90;;;;;;5034209;28;20449;-70
2023/02/09 02:46:45;;;;;;;29.33;19.03;;;-2.10;99.90;;;;;;5034891;28;20480;-71
2023/02/09 02:49:34;;;;;;;29.17;18.70;;;-2.10;99.90;;;;;;5034734;28;20744;-71
2023/02/09 02:52:05;;;;;;;28.93;20.03;;;-2.00;99.90;;;;;;5033501;28;20403;-71
2023/02/09 02:54:35;;;;;;;29.10;19.30;;;-2.20;99.90;;;;;;5034560;28;20464;-71
2023/02/09 02:57:10;;;;;;;28.23;20.10;;;-2.20;99.90;;;;;;5034810;28;20382;-71
2023/02/09 02:59:45;;;;;;;27.03;19.57;;;-2.10;99.90;;;;;;5032209;28;20955;-71
2023/02/09 03:02:20;;;;;;;31.77;19.57;;;-2.00;99.90;;;;;;5034394;28;20410;-71
2023/02/09 03:04:49;;;;;;;27.50;18.33;;;-1.90;99.90;;;;;;5034502;28;20441;-71
2023/02/09 03:07:17;;;;;;;28.97;20.13;;;-1.80;99.90;;;;;;5034490;28;20783;-71
2023/02/09 03:09:56;;;;;;;30.30;20.33;;;-1.80;99.90;;;;;;5034328;28;20485;-71
2023/02/09 03:12:50;;;;;;;29.57;20.93;;;-1.90;99.90;;;;;;5033297;28;20426;-72
2023/02/09 03:15:50;;;;;;;27.60;19.70;;;-1.90;99.90;;;;;;5033414;28;20417;-74
2023/02/09 03:18:34;;;;;;;28.20;19.77;;;-2.20;99.90;;;;;;5014181;28;20388;-71
2023/02/09 03:21:07;;;;;;;31.07;20.17;;;-2.20;99.90;;;;;;5014182;28;20407;-72
2023/02/09 03:23:45;;;;;;;33.53;21.83;;;-2.10;99.90;;;;;;5014327;28;20447;-72
2023/02/09 03:26:14;;;;;;;34.33;20.87;;;-2.00;99.90;;;;;;5012700;28;20761;-72
2023/02/09 03:28:44;;;;;;;32.27;21.37;;;-2.00;99.90;;;;;;5014878;28;20411;-72
2023/02/09 03:31:10;;;;;;;33.27;22.43;;;-1.90;99.90;;;;;;5013461;28;20920;-72
2023/02/09 03:33:37;;;;;;;31.97;22.20;;;-2.00;99.90;;;;;;5012611;28;20438;-72
2023/02/09 03:36:07;;;;;;;32.67;21.03;;;-2.00;99.90;;;;;;5012705;28;20449;-72
2023/02/09 03:38:33;;;;;;;33.27;22.23;;;-2.10;99.90;;;;;;5013886;28;20423;-72
2023/02/09 03:40:58;;;;;;;27.40;21.03;;;-2.20;99.90;;;;;;5033220;28;20434;-71
2023/02/09 03:44:25;;;;;;;40.57;23.90;;;-2.20;99.90;;;;;;5033316;28;20202;-71
2023/02/09 03:46:10;;;;;;;35.53;23.20;;;-2.20;99.90;;;;;;5031799;28;20183;-70
2023/02/09 03:48:35;;;;;;;34.50;23.30;;;-2.20;99.90;;;;;;5033908;28;20884;-71
2023/02/09 03:51:01;;;;;;;33.93;24.70;;;-2.20;99.90;;;;;;5033637;28;20195;-71
2023/02/09 03:53:26;;;;;;;35.83;25.03;;;-2.20;99.90;;;;;;5033316;28;20206;-71
2023/02/09 03:55:52;;;;;;;35.53;22.20;;;-2.10;99.90;;;;;;5033401;28;20203;-71
2023/02/09 03:58:17;;;;;;;35.03;24.77;;;-2.20;99.90;;;;;;5033512;28;20179;-71
2023/02/09 04:00:43;;;;;;;34.70;23.13;;;-2.20;99.90;;;;;;5031322;28;20175;-72
2023/02/09 04:03:08;;;;;;;33.40;23.40;;;-2.30;99.90;;;;;;5032863;28;20203;-71
2023/02/09 04:05:34;;;;;;;31.80;22.13;;;-2.40;99.90;;;;;;5033172;28;20267;-73
2023/02/09 04:07:59;;;;;;;34.83;22.43;;;-2.30;99.90;;;;;;5033109;28;20164;-73
2023/02/09 04:10:25;;;;;;;31.90;22.77;;;-2.20;99.90;;;;;;5033168;28;20170;-74
2023/02/09 04:12:50;;;;;;;36.33;24.90;;;-2.20;99.90;;;;;;5032072;28;20242;-73
2023/02/09 04:15:16;;;;;;;33.33;24.43;;;-2.10;99.90;;;;;;5033033;28;20175;-73
2023/02/09 04:17:42;;;;;;;31.97;22.40;;;-2.10;99.90;;;;;;5032507;28;20163;-75
2023/02/09 04:20:07;;;;;;;31.53;22.73;;;-2.10;99.90;;;;;;5031864;28;20175;-74
2023/02/09 04:22:33;;;;;;;37.40;24.23;;;-2.20;99.90;;;;;;5032962;28;20254;-74
2023/02/09 04:24:58;;;;;;;32.10;25.30;;;-2.30;99.90;;;;;;5032350;28;20210;-73
2023/02/09 04:27:25;;;;;;;36.17;24.77;;;-2.30;99.90;;;;;;5032798;28;20625;-73
2023/02/09 04:29:51;;;;;;;40.13;26.00;;;-2.40;99.90;;;;;;5031493;28;20168;-74
2023/02/09 04:32:16;;;;;;;32.90;23.87;;;-2.40;99.90;;;;;;5032772;28;20827;-75
2023/02/09 04:34:42;;;;;;;35.20;24.93;;;-2.40;99.90;;;;;;5032258;28;20737;-74
2023/02/09 04:37:08;;;;;;;36.00;25.30;;;-2.30;99.90;;;;;;5032696;28;20171;-74
2023/02/09 04:39:33;;;;;;;37.93;26.07;;;-2.20;99.90;;;;;;5032614;28;20171;-74
2023/02/09 04:41:59;;;;;;;34.07;23.80;;;-2.30;99.90;;;;;;5032462;28;20266;-74
2023/02/09 04:44:24;;;;;;;33.80;23.73;;;-2.10;99.90;;;;;;5032596;28;20630;-74
2023/02/09 04:46:50;;;;;;;36.23;24.63;;;-2.00;99.90;;;;;;5032796;28;20171;-74
2023/02/09 04:49:15;;;;;;;29.93;23.93;;;-2.10;99.90;;;;;;5032264;28;20585;-75
2023/02/09 04:51:41;;;;;;;37.10;24.77;;;-2.00;99.90;;;;;;5032753;28;20529;-74
2023/02/09 04:54:06;;;;;;;38.33;24.80;;;-2.00;99.90;;;;;;5032550;28;20217;-75
2023/02/09 04:56:32;;;;;;;32.70;23.70;;;-2.00;99.90;;;;;;5032813;28;20175;-75
2023/02/09 05:01:41;;;;;;;40.00;23.83;;;-2.00;99.90;;;;;;5032581;28;20251;-75
2023/02/09 05:04:07;;;;;;;36.30;25.93;;;-2.00;99.90;;;;;;5032178;28;20888;-74
2023/02/09 05:06:32;;;;;;;38.10;26.37;;;-2.10;99.90;;;;;;5032767;28;20253;-75
2023/02/09 05:08:58;;;;;;;32.73;23.07;;;-2.20;99.90;;;;;;5032532;28;20214;-74
2023/02/09 05:11:23;;;;;;;35.07;25.20;;;-2.20;99.90;;;;;;5032886;28;20175;-75
2023/02/09 05:13:49;;;;;;;40.03;27.90;;;-2.40;99.90;;;;;;5029944;28;20198;-74
2023/02/09 05:16:18;;;;;;;32.63;23.67;;;-2.50;99.90;;;;;;5032689;28;20167;-74
2023/02/09 05:18:44;;;;;;;40.13;26.17;;;-2.50;99.90;;;;;;5031283;28;20211;-74
2023/02/09 05:21:10;;;;;;;36.70;24.80;;;-2.40;99.90;;;;;;5031260;28;20415;-74
2023/02/09 05:23:36;;;;;;;35.13;25.53;;;-2.50;99.90;;;;;;5030828;28;20210;-74
2023/02/09 05:26:01;;;;;;;38.37;27.17;;;-2.40;99.90;;;;;;5032417;28;20433;-74
2023/02/09 05:28:27;;;;;;;40.17;26.40;;;-2.40;99.90;;;;;;5030937;28;20258;-75
2023/02/09 05:30:52;;;;;;;41.73;28.27;;;-2.60;99.90;;;;;;5036053;28;20176;-75
2023/02/09 05:33:21;;;;;;;36.20;25.67;;;-2.50;99.90;;;;;;5037054;28;20210;-74
2023/02/09 05:35:49;;;;;;;36.30;24.17;;;-2.50;99.90;;;;;;5039159;28;20592;-73
2023/02/09 05:38:15;;;;;;;38.43;26.50;;;-2.50;99.90;;;;;;5042197;28;20406;-76
2023/02/09 05:40:40;;;;;;;41.73;26.23;;;-2.50;99.90;;;;;;5041413;28;20932;-74
2023/02/09 05:43:06;;;;;;;37.90;27.47;;;-2.40;99.90;;;;;;5041727;28;20525;-76
2023/02/09 05:45:31;;;;;;;42.63;29.50;;;-2.40;99.90;;;;;;5040933;28;20266;-75
2023/02/09 05:47:57;;;;;;;44.00;29.97;;;-2.30;99.90;;;;;;5037864;28;20229;-74
2023/02/09 05:50:22;;;;;;;40.77;27.97;;;-2.30;99.90;;;;;;5035017;28;20262;-74
2023/02/09 05:52:48;;;;;;;40.67;27.57;;;-2.30;99.90;;;;;;5036589;28;20167;-73
2023/02/09 05:55:14;;;;;;;41.87;28.90;;;-2.40;99.90;;;;;;5035490;28;20241;-71
2023/02/09 05:57:39;;;;;;;41.40;29.37;;;-2.50;99.90;;;;;;5035146;28;20167;-71
2023/02/09 06:00:06;;;;;;;35.67;27.07;;;-2.50;99.90;;;;;;5035562;28;20562;-71
2023/02/09 06:02:31;;;;;;;39.57;26.50;;;-2.40;99.90;;;;;;5034528;28;20556;-71
2023/02/09 06:04:57;;;;;;;41.40;27.57;;;-2.40;99.90;;;;;;5035065;28;20450;-74
2023/02/09 06:07:22;;;;;;;37.03;26.87;;;-2.40;99.90;;;;;;5035057;28;20250;-70
2023/02/09 06:09:48;;;;;;;40.13;26.03;;;-2.40;99.90;;;;;;5035483;28;20195;-71
2023/02/09 06:12:13;;;;;;;38.13;27.30;;;-2.30;99.90;;;;;;5034909;28;20681;-71
2023/02/09 06:14:39;;;;;;;36.87;26.63;;;-2.30;99.90;;;;;;5034081;28;20700;-71
2023/02/09 06:17:04;;;;;;;34.70;25.40;;;-2.30;99.90;;;;;;5035318;28;20173;-72
2023/02/09 06:19:30;;;;;;;42.70;28.80;;;-2.40;99.90;;;;;;5035838;28;20610;-71
2023/02/09 06:21:56;;;;;;;34.20;23.97;;;-2.40;99.90;;;;;;5035570;28;20207;-71
2023/02/09 06:24:21;;;;;;;36.97;23.53;;;-2.30;99.90;;;;;;5035551;28;20207;-71
2023/02/09 06:26:47;;;;;;;35.27;25.50;;;-2.20;99.90;;;;;;5034357;28;20258;-72
2023/02/09 06:29:12;;;;;;;37.53;26.17;;;-2.30;99.90;;;;;;5035621;28;20179;-71
2023/02/09 06:31:40;;;;;;;38.00;27.10;;;-2.30;99.90;;;;;;5035659;28;20168;-71
2023/02/09 06:34:06;;;;;;;39.97;25.83;;;-2.20;99.90;;;;;;5035146;28;20192;-72
2023/02/09 06:36:32;;;;;;;39.73;28.57;;;-2.30;99.90;;;;;;5035149;28;20467;-72
2023/02/09 06:38:57;;;;;;;49.80;34.27;;;-2.30;99.90;;;;;;5035547;28;20497;-72
2023/02/09 06:41:23;;;;;;;37.27;26.10;;;-2.40;99.90;;;;;;5034381;28;20167;-74
2023/02/09 06:43:48;;;;;;;32.60;23.47;;;-2.20;99.90;;;;;;5034314;28;20583;-71
2023/02/09 06:46:15;;;;;;;38.20;25.90;;;-2.30;99.90;;;;;;5034375;28;20650;-71
2023/02/09 06:48:41;;;;;;;40.93;27.17;;;-2.20;99.90;;;;;;5034510;28;20175;-71
2023/02/09 06:51:14;;;;;;;41.73;25.77;;;-2.30;99.90;;;;;;5033732;28;20440;-72
2023/02/09 06:53:41;;;;;;;40.03;26.83;;;-2.30;99.90;;;;;;5034714;28;20707;-72
2023/02/09 06:56:08;;;;;;;39.20;26.87;;;-2.40;99.90;;;;;;5034925;28;20532;-72
2023/02/09 06:58:36;;;;;;;40.40;27.70;;;-2.40;99.90;;;;;;5032912;28;20429;-73
2023/02/09 07:01:10;;;;;;;33.87;25.03;;;-2.40;99.90;;;;;;5034765;28;20410;-72
2023/02/09 07:03:37;;;;;;;36.13;25.13;;;-2.40;99.90;;;;;;5034735;28;20995;-71
2023/02/09 07:06:12;;;;;;;44.50;27.37;;;-2.50;99.90;;;;;;5033628;28;20425;-71
2023/02/09 07:08:38;;;;;;;44.80;34.30;;;-2.50;99.90;;;;;;5034896;28;20402;-71
2023/02/09 07:11:05;;;;;;;42.80;28.23;;;-2.50;99.90;;;;;;5034066;28;20414;-71
2023/02/09 07:13:32;;;;;;;39.53;26.33;;;-2.40;99.90;;;;;;5034332;28;20422;-71
2023/02/09 07:16:00;;;;;;;37.07;26.73;;;-2.40;99.90;;;;;;5034438;28;20398;-71
2023/02/09 07:18:26;;;;;;;33.80;26.43;;;-2.30;99.90;;;;;;5033454;28;20422;-71
2023/02/09 07:20:59;;;;;;;36.43;27.20;;;-2.30;99.90;;;;;;5034241;28;20497;-71
2023/02/09 07:23:25;;;;;;;48.30;29.47;;;-2.20;99.90;;;;;;5034356;28;20454;-71
2023/02/09 07:25:51;;;;;;;37.77;26.90;;;-2.20;99.90;;;;;;5033162;28;20838;-71
2023/02/09 07:28:19;;;;;;;42.23;27.33;;;-2.20;99.90;;;;;;5034273;28;20448;-71
2023/02/09 07:30:47;;;;;;;36.73;25.97;;;-2.10;99.90;;;;;;5036615;28;20403;-71
2023/02/09 07:33:12;;;;;;;38.03;27.67;;;-2.20;99.90;;;;;;5032525;28;20429;-71
2023/02/09 07:35:39;;;;;;;43.03;28.13;;;-2.10;99.90;;;;;;5034883;28;20401;-71
2023/02/09 07:38:05;;;;;;;40.93;26.93;;;-2.10;99.90;;;;;;5034337;28;20650;-71
2023/02/09 07:40:31;;;;;;;45.70;28.80;;;-2.10;99.90;;;;;;5033974;28;20398;-71
2023/02/09 07:42:56;;;;;;;40.50;28.13;;;-2.10;99.90;;;;;;5030847;28;20187;-73
2023/02/09 07:45:22;;;;;;;37.20;27.50;;;-2.10;99.90;;;;;;5032081;28;20178;-72
2023/02/09 07:47:47;;;;;;;39.60;28.23;;;-2.00;99.90;;;;;;5032790;28;20190;-72
2023/02/09 07:50:13;;;;;;;41.00;27.67;;;-1.80;99.90;;;;;;5032644;28;20242;-71
2023/02/09 07:52:38;;;;;;;36.17;27.10;;;-1.80;99.90;;;;;;5032512;28;20174;-71
2023/02/09 07:55:05;;;;;;;40.50;27.23;;;-1.70;99.90;;;;;;5032547;28;20204;-72
2023/02/09 07:57:31;;;;;;;39.03;25.20;;;-1.70;99.90;;;;;;5032461;28;20610;-72
2023/02/09 07:59:57;;;;;;;43.20;28.90;;;-1.60;99.90;;;;;;5032879;28;20433;-71
2023/02/09 08:02:32;;;;;;;43.27;29.87;;;-1.60;99.90;;;;;;5033512;28;20410;-71
2023/02/09 08:04:59;;;;;;;38.00;28.20;;;-1.50;99.90;;;;;;5029813;28;20209;-72
2023/02/09 08:07:26;;;;;;;44.13;29.90;;;-1.40;99.90;;;;;;5031056;28;20436;-74
2023/02/09 08:09:52;;;;;;;38.47;26.20;;;-1.60;99.90;;;;;;5027014;28;20410;-71
2023/02/09 08:12:19;;;;;;;41.80;27.13;;;-1.50;99.90;;;;;;5027098;28;20417;-72
2023/02/09 08:14:49;;;;;;;38.67;28.30;;;-1.30;99.90;;;;;;5023877;28;20195;-70
2023/02/09 08:17:23;;;;;;;39.27;26.07;;;-1.20;99.90;;;;;;5027671;28;20406;-72
2023/02/09 08:19:58;;;;;;;37.83;26.40;;;-1.20;99.90;;;;;;5027559;28;20409;-70
2023/02/09 08:22:28;;;;;;;38.17;26.13;;;-1.00;99.90;;;;;;5024656;28;20422;-72
2023/02/09 08:24:54;;;;;;;37.10;26.40;;;-0.90;99.90;;;;;;5028150;28;20434;-71
2023/02/09 08:27:20;;;;;;;40.40;28.03;;;-0.80;99.90;;;;;;5025976;28;20431;-71
2023/02/09 08:29:45;;;;;;;40.93;29.07;;;-0.60;99.90;;;;;;5026667;28;20776;-71
2023/02/09 08:32:11;;;;;;;38.67;27.97;;;-0.50;99.90;;;;;;5026418;28;20185;-70
2023/02/09 08:34:37;;;;;;;40.33;28.77;;;-0.40;99.90;;;;;;5026632;28;20201;-71
2023/02/09 08:37:02;;;;;;;36.00;26.93;;;-0.20;99.90;;;;;;5026413;28;20185;-71
2023/02/09 08:39:28;;;;;;;36.93;28.30;;;-0.20;99.90;;;;;;5026271;28;20189;-72
2023/02/09 08:41:53;;;;;;;39.17;30.63;;;0.00;99.90;;;;;;5026284;28;20673;-72
2023/02/09 08:44:19;;;;;;;39.77;27.77;;;0.00;99.90;;;;;;5025334;28;20585;-72
2023/02/09 08:46:44;;;;;;;39.77;28.67;;;-0.10;99.90;;;;;;5026436;28;20175;-72
2023/02/09 08:49:10;;;;;;;44.20;29.63;;;0.00;99.90;;;;;;5026676;28;21625;-70
2023/02/09 08:51:35;;;;;;;43.60;29.80;;;0.10;99.90;;;;;;5027094;28;20172;-71
2023/02/09 08:54:01;;;;;;;41.37;29.33;;;0.30;99.90;;;;;;5026952;28;20206;-68
2023/02/09 08:56:27;;;;;;;42.23;29.63;;;0.40;99.90;;;;;;5027321;28;20666;-70
2023/02/09 08:58:52;;;;;;;39.70;29.70;;;0.60;99.90;;;;;;5026927;28;20188;-69
2023/02/09 09:01:18;;;;;;;40.37;28.10;;;0.70;99.90;;;;;;5027495;28;20205;-70
2023/02/09 09:03:43;;;;;;;41.27;28.87;;;0.80;99.90;;;;;;5026437;28;20241;-71
2023/02/09 09:06:11;;;;;;;38.53;28.10;;;0.80;99.90;;;;;;5025366;28;20498;-69
2023/02/09 09:08:38;;;;;;;36.73;27.70;;;0.90;99.90;;;;;;5026115;28;20225;-74
2023/02/09 09:11:05;;;;;;;43.90;30.73;;;1.00;99.90;;;;;;5030351;28;20894;-72
2023/02/09 09:13:31;;;;;;;37.57;28.43;;;1.00;99.90;;;;;;5029968;28;20436;-71
2023/02/09 09:15:57;;;;;;;41.93;32.10;;;1.10;99.90;;;;;;5029834;28;20423;-72
2023/02/09 09:18:24;;;;;;;41.83;29.60;;;0.90;99.90;;;;;;5030962;28;20425;-72
2023/02/09 09:20:50;;;;;;;38.60;26.97;;;0.80;99.90;;;;;;5030776;28;20177;-70
2023/02/09 09:23:15;;;;;;;40.60;29.23;;;1.00;99.90;;;;;;5030234;28;20498;-70
2023/02/09 09:25:41;;;;;;;50.10;30.47;;;1.00;99.90;;;;;;5030231;28;20444;-70
2023/02/09 09:28:07;;;;;;;42.03;30.37;;;1.00;99.90;;;;;;5028632;28;20650;-69
2023/02/09 09:30:34;;;;;;;41.87;31.27;;;1.00;99.90;;;;;;5030578;28;20205;-70
2023/02/09 09:33:00;;;;;;;41.03;30.10;;;0.90;99.90;;;;;;5033133;28;20788;-69
2023/02/09 09:35:26;;;;;;;44.03;31.60;;;0.90;99.90;;;;;;5035828;28;20403;-71
2023/02/09 09:37:54;;;;;;;39.30;27.87;;;0.80;99.90;;;;;;5038907;28;20439;-71
2023/02/09 09:40:23;;;;;;;42.30;29.30;;;0.90;99.90;;;;;;5016053;28;20839;-68
2023/02/09 09:42:53;;;;;;;40.97;29.60;;;0.90;99.90;;;;;;5016122;28;20923;-70
2023/02/09 09:45:24;;;;;;;41.70;30.67;;;1.30;99.90;;;;;;5016140;28;20469;-70
2023/02/09 09:47:50;;;;;;;35.30;28.33;;;1.60;99.90;;;;;;5016285;28;20935;-70
2023/02/09 09:50:23;;;;;;;38.43;28.87;;;1.60;99.90;;;;;;5016352;28;20494;-69
2023/02/09 09:52:52;;;;;;;36.43;29.17;;;1.70;99.90;;;;;;5016578;28;20375;-72
2023/02/09 09:55:27;;;;;;;35.57;27.27;;;1.80;99.90;;;;;;5016221;28;20466;-70
2023/02/09 09:57:55;;;;;;;44.63;31.60;;;1.90;99.90;;;;;;5027756;28;20904;-71
2023/02/09 10:00:22;;;;;;;38.37;29.37;;;2.00;99.90;;;;;;5035604;28;20402;-71
2023/02/09 10:02:48;;;;;;;37.70;29.17;;;2.20;99.90;;;;;;5035936;28;20443;-71
2023/02/09 10:05:19;;;;;;;42.53;30.83;;;2.10;99.90;;;;;;5034335;28;20453;-72
2023/02/09 10:07:56;;;;;;;36.40;27.87;;;2.10;99.90;;;;;;5034840;28;20167;-73
2023/02/09 10:10:53;;;;;;;40.50;28.83;;;2.40;99.90;;;;;;5033738;28;20390;-71
2023/02/09 10:13:31;;;;;;;39.03;26.50;;;2.60;99.90;;;;;;5012855;28;20454;-70
2023/02/09 10:15:57;;;;;;;38.47;27.40;;;2.60;99.90;;;;;;5035050;28;20390;-70
2023/02/09 10:18:24;;;;;;;44.83;27.63;;;2.70;99.90;;;;;;5034700;28;20925;-71
2023/02/09 10:20:55;;;;;;;36.20;26.50;;;2.70;99.90;;;;;;5033656;28;20425;-70
2023/02/09 10:23:27;;;;;;;38.17;28.67;;;2.80;99.90;;;;;;5035187;28;20450;-72
2023/02/09 10:26:01;;;;;;;36.10;28.50;;;3.00;99.90;;;;;;5034103;28;20410;-70
2023/02/09 10:28:33;;;;;;;36.57;27.67;;;3.10;99.90;;;;;;5035324;28;20904;-70
2023/02/09 10:31:02;;;;;;;39.23;28.33;;;3.20;99.90;;;;;;5035125;28;20386;-72
2023/02/09 10:33:35;;;;;;;40.43;28.70;;;2.90;99.90;;;;;;5033617;28;20437;-71
2023/02/09 10:36:04;;;;;;;36.80;28.00;;;2.70;99.90;;;;;;5035495;28;20397;-72
2023/02/09 10:38:31;;;;;;;39.70;28.00;;;2.80;99.90;;;;;;5034299;28;20402;-72
2023/02/09 10:40:59;;;;;;;37.27;28.03;;;2.90;99.90;;;;;;5035599;28;20425;-71
2023/02/09 10:43:33;;;;;;;41.60;28.40;;;2.90;99.90;;;;;;5035100;28;21002;-70
2023/02/09 10:46:02;;;;;;;32.93;27.07;;;3.20;99.90;;;;;;5034778;28;20402;-73
2023/02/09 10:48:38;;;;;;;34.97;25.87;;;3.50;99.90;;;;;;5035454;28;20394;-72
2023/02/09 10:51:13;;;;;;;38.93;29.30;;;3.60;99.90;;;;;;5034567;28;20439;-70
2023/02/09 10:53:55;;;;;;;34.50;26.87;;;3.40;99.90;;;;;;5034646;28;20455;-70
2023/02/09 10:56:27;;;;;;;38.47;28.00;;;3.50;99.90;;;;;;5034368;28;20433;-72
2023/02/09 10:59:01;;;;;;;33.67;26.13;;;3.30;99.90;;;;;;5035706;28;20896;-72
2023/02/09 11:01:31;;;;;;;33.03;23.90;;;3.20;99.90;;;;;;5034501;28;20405;-72
2023/02/09 11:04:03;;;;;;;33.97;26.17;;;3.60;99.90;;;;;;5033649;28;20450;-72
2023/02/09 11:06:41;;;;;;;33.63;25.60;;;3.70;99.90;;;;;;5034433;28;20499;-72
2023/02/09 11:09:15;;;;;;;37.00;24.57;;;3.80;99.90;;;;;;5033502;28;20433;-74
2023/02/09 11:11:42;;;;;;;33.20;23.60;;;3.70;99.90;;;;;;5034704;28;20422;-72
2023/02/09 11:14:16;;;;;;;31.10;23.20;;;3.90;99.90;;;;;;5033072;28;20454;-72
2023/02/09 11:16:46;;;;;;;31.93;25.40;;;4.20;99.90;;;;;;5034747;28;20402;-72
2023/02/09 11:19:39;;;;;;;31.50;25.03;;;6.00;99.90;;;;;;5034928;28;20406;-72
2023/02/09 11:22:32;;;;;;;39.50;28.70;;;8.20;96.80;;;;;;5035237;28;20391;-73
2023/02/09 11:25:17;;;;;;;32.57;25.67;;;9.80;91.60;;;;;;5034572;28;20448;-69
2023/02/09 11:27:54;;;;;;;33.50;27.60;;;10.70;87.00;;;;;;5033473;28;20843;-72
2023/02/09 11:30:47;;;;;;;30.43;25.03;;;11.50;84.00;;;;;;5034994;28;20908;-70
2023/02/09 11:33:27;;;;;;;35.40;28.37;;;12.50;78.30;;;;;;5033854;28;20497;-71
2023/02/09 11:36:02;;;;;;;34.50;26.50;;;10.70;77.40;;;;;;5035674;28;20392;-72
2023/02/09 11:38:54;;;;;;;28.67;25.57;;;9.60;82.10;;;;;;5035327;28;20392;-73
2023/02/09 11:44:40;;;;;;;36.23;27.83;;;10.40;80.20;;;;;;5033334;28;20545;-71
2023/02/09 11:47:13;;;;;;;31.37;26.97;;;11.10;78.70;;;;;;5028169;28;20507;-71
2023/02/09 11:49:47;;;;;;;36.80;27.47;;;10.30;77.20;;;;;;5035377;28;20464;-71
2023/02/09 11:52:30;;;;;;;32.33;26.13;;;11.20;79.60;;;;;;5034209;28;20487;-71
2023/02/09 11:55:00;;;;;;;45.03;28.33;;;12.30;76.20;;;;;;5043046;22;20552;-72
2023/02/09 11:57:39;;;;;;;37.43;28.07;;;11.70;73.80;;;;;;5014696;28;20792;-71
2023/02/09 12:00:10;;;;;;;35.13;28.60;;;12.80;75.00;;;;;;5013244;28;20414;-72
2023/02/09 12:03:11;;;;;;;33.70;25.30;;;11.90;72.00;;;;;;5014302;28;20422;-72
2023/02/09 12:05:37;;;;;;;30.90;26.67;;;11.10;74.60;;;;;;4981600;28;20968;-72
2023/02/09 12:08:25;;;;;;;35.97;25.53;;;12.00;74.50;;;;;;5013654;28;20407;-73
2023/02/09 12:11:12;;;;;;;32.53;26.67;;;13.70;69.30;;;;;;5015115;28;20981;-72
2023/02/09 12:14:10;;;;;;;32.80;26.07;;;14.60;67.10;;;;;;5017261;28;20946;-72
2023/02/09 12:16:39;;;;;;;30.20;25.63;;;15.80;63.90;;;;;;4982790;28;20900;-72
2023/02/09 12:19:24;;;;;;;33.10;26.00;;;15.80;61.00;;;;;;5015272;28;20409;-72
2023/02/09 12:21:50;;;;;;;45.50;27.13;;;16.10;58.60;;;;;;5013528;28;20426;-69
2023/02/09 12:24:38;;;;;;;30.90;26.20;;;14.90;59.10;;;;;;5013450;28;20468;-72
2023/02/09 12:27:24;;;;;;;32.73;24.20;;;14.00;62.20;;;;;;5014575;28;20160;-72
2023/02/09 12:29:50;;;;;;;27.97;24.90;;;14.50;60.20;;;;;;5015532;28;20413;-70
2023/02/09 12:32:40;;;;;;;30.20;24.50;;;13.70;61.20;;;;;;5015238;28;20904;-72
2023/02/09 12:35:27;;;;;;;31.73;24.90;;;14.90;59.90;;;;;;5013739;28;20273;-72
2023/02/09 12:38:29;;;;;;;30.83;24.83;;;14.30;60.00;;;;;;5013355;28;20409;-71
2023/02/09 12:41:06;;;;;;;31.10;25.53;;;14.50;59.70;;;;;;5010284;28;20423;-73
2023/02/09 12:43:34;;;;;;;29.03;25.47;;;14.10;59.20;;;;;;5012883;28;20511;-73
2023/02/09 12:46:20;;;;;;;30.03;24.47;;;13.30;60.60;;;;;;5012877;28;20756;-73
2023/02/09 12:49:02;;;;;;;25.63;22.83;;;13.70;61.50;;;;;;4994110;28;20411;-73